createdAt,value
2018-12-18T00:01:04.290Z,3.4
2018-12-18T00:02:04.309Z,3.52
2018-12-18T00:03:04.317Z,3.51
2018-12-18T00:04:18.993Z,3.47
2018-12-18T00:05:04.343Z,3.45
2018-12-18T00:06:04.358Z,3.42
2018-12-18T00:07:04.375Z,3.32
2018-12-18T00:08:04.387Z,3.31
2018-12-18T00:09:04.398Z,3.32
2018-12-18T00:10:04.413Z,3.28
2018-12-18T00:11:04.427Z,3.36
2018-12-18T00:12:04.446Z,3.28
2018-12-18T00:13:04.450Z,3.21
2018-12-18T00:14:04.464Z,3.21
2018-12-18T00:15:04.484Z,3.31
2018-12-18T00:16:04.492Z,3.33
2018-12-18T00:17:04.506Z,3.31
2018-12-18T00:18:04.519Z,3.33
2018-12-18T00:19:04.535Z,3.36
2018-12-18T00:20:04.554Z,3.32
2018-12-18T00:21:04.580Z,3.35
2018-12-18T00:22:04.576Z,3.39
2018-12-18T00:23:19.249Z,3.47
2018-12-18T00:24:04.601Z,3.39
2018-12-18T00:25:04.620Z,3.47
2018-12-18T00:26:04.627Z,3.42
2018-12-18T00:27:04.642Z,3.54
2018-12-18T00:28:04.658Z,3.43
2018-12-18T00:29:04.669Z,3.52
2018-12-18T00:30:04.687Z,3.45
2018-12-18T00:31:04.697Z,3.36
2018-12-18T00:32:04.713Z,3.39
2018-12-18T00:34:04.738Z,3.39
2018-12-18T00:35:19.413Z,3.39
2018-12-18T00:36:19.426Z,3.33
2018-12-18T00:37:19.439Z,3.45
2018-12-18T00:38:04.543Z,3.5
2018-12-18T00:39:19.467Z,3.45
2018-12-18T00:40:04.819Z,3.55
2018-12-18T00:41:04.830Z,3.45
2018-12-18T00:42:04.844Z,3.43
2018-12-18T00:43:04.862Z,3.4
2018-12-18T00:44:04.881Z,3.43
2018-12-18T00:45:04.884Z,3.42
2018-12-18T00:46:04.653Z,3.35
2018-12-18T00:47:04.923Z,3.36
2018-12-18T00:48:04.925Z,3.32
2018-12-18T00:50:04.952Z,3.29
2018-12-18T00:51:19.630Z,3.35
2018-12-18T00:52:04.982Z,3.32
2018-12-18T00:53:05.000Z,3.31
2018-12-18T00:54:05.015Z,3.4
2018-12-18T00:55:19.683Z,3.4
2018-12-18T00:56:05.044Z,3.35
2018-12-18T00:57:05.049Z,3.47
2018-12-18T00:58:05.060Z,3.48
2018-12-18T00:59:05.073Z,3.48
2018-12-18T01:00:05.089Z,3.55
2018-12-18T01:01:05.101Z,3.47
2018-12-18T01:02:05.118Z,3.48
2018-12-18T01:03:05.140Z,3.52
2018-12-18T01:05:05.157Z,3.58
2018-12-18T01:06:05.173Z,3.6
2018-12-18T01:07:05.191Z,3.66
2018-12-18T01:08:19.858Z,3.61
2018-12-18T01:09:05.211Z,3.62
2018-12-18T01:10:05.227Z,3.6
2018-12-18T01:11:19.902Z,3.73
2018-12-18T01:12:05.254Z,3.68
2018-12-18T01:13:05.266Z,3.75
2018-12-18T01:14:05.278Z,3.75
2018-12-18T01:15:05.293Z,3.7
2018-12-18T01:16:05.306Z,3.87
2018-12-18T01:17:19.734Z,3.78
2018-12-18T01:18:05.331Z,3.79
2018-12-18T01:19:05.349Z,3.75
2018-12-18T01:20:05.358Z,3.62
2018-12-18T01:21:05.372Z,3.62
2018-12-18T01:22:05.389Z,3.66
2018-12-18T01:23:05.400Z,3.66
2018-12-18T01:24:05.421Z,3.61
2018-12-18T01:25:05.431Z,3.57
2018-12-18T01:26:20.110Z,3.55
2018-12-18T01:27:05.457Z,3.57
2018-12-18T01:28:05.470Z,3.58
2018-12-18T01:30:05.497Z,3.62
2018-12-18T01:31:05.512Z,3.78
2018-12-18T01:32:05.522Z,3.68
2018-12-18T01:33:05.537Z,3.62
2018-12-18T01:34:05.551Z,3.65
2018-12-18T01:35:05.564Z,3.7
2018-12-18T01:36:05.576Z,3.73
2018-12-18T01:37:05.593Z,3.7
2018-12-18T01:38:05.605Z,3.75
2018-12-18T01:39:05.617Z,3.76
2018-12-18T01:40:05.636Z,3.8
2018-12-18T01:41:05.647Z,3.76
2018-12-18T01:42:05.660Z,3.68
2018-12-18T01:43:05.676Z,3.72
2018-12-18T01:44:05.688Z,3.7
2018-12-18T01:45:05.700Z,3.73
2018-12-18T01:46:05.713Z,3.75
2018-12-18T01:47:05.728Z,3.68
2018-12-18T01:48:05.741Z,3.72
2018-12-18T01:49:05.757Z,3.75
2018-12-18T01:50:05.770Z,3.65
2018-12-18T01:51:05.782Z,3.69
2018-12-18T01:52:05.802Z,3.75
2018-12-18T01:54:20.487Z,3.75
2018-12-18T01:55:20.499Z,3.76
2018-12-18T01:56:05.853Z,3.75
2018-12-18T01:57:05.869Z,3.68
2018-12-18T01:58:20.542Z,3.88
2018-12-18T01:59:05.892Z,3.79
2018-12-18T02:00:05.907Z,3.83
2018-12-18T02:01:05.922Z,3.8
2018-12-18T02:03:05.947Z,3.79
2018-12-18T02:04:10.883Z,3.83
2018-12-18T02:05:05.977Z,3.78
2018-12-18T02:06:05.993Z,3.73
2018-12-18T02:07:06.004Z,3.83
2018-12-18T02:08:06.029Z,3.86
2018-12-18T02:09:06.033Z,3.86
2018-12-18T02:10:09.077Z,3.75
2018-12-18T02:11:20.719Z,3.68
2018-12-18T02:12:20.732Z,3.66
2018-12-18T02:13:06.087Z,3.83
2018-12-18T02:14:20.761Z,3.76
2018-12-18T02:15:06.114Z,3.83
2018-12-18T02:16:06.124Z,3.8
2018-12-18T02:17:06.138Z,3.88
2018-12-18T02:18:06.155Z,3.79
2018-12-18T02:19:20.900Z,3.76
2018-12-18T02:20:06.183Z,3.83
2018-12-18T02:21:06.194Z,3.83
2018-12-18T02:22:06.207Z,3.84
2018-12-18T02:23:06.225Z,3.83
2018-12-18T02:25:06.250Z,3.87
2018-12-18T02:26:06.264Z,3.84
2018-12-18T02:27:06.277Z,3.72
2018-12-18T02:28:06.290Z,3.84
2018-12-18T02:29:06.310Z,3.83
2018-12-18T02:30:21.032Z,3.79
2018-12-18T02:31:06.386Z,3.79
2018-12-18T02:32:06.347Z,3.84
2018-12-18T02:33:06.359Z,3.75
2018-12-18T02:34:13.414Z,3.86
2018-12-18T02:35:06.399Z,3.76
2018-12-18T02:36:06.404Z,3.84
2018-12-18T02:37:06.449Z,3.79
2018-12-18T02:38:06.431Z,3.83
2018-12-18T02:39:06.439Z,3.9
2018-12-18T02:40:21.120Z,3.75
2018-12-18T02:41:06.475Z,3.8
2018-12-18T02:42:06.492Z,3.86
2018-12-18T02:43:06.537Z,3.84
2018-12-18T02:44:06.510Z,3.9
2018-12-18T02:45:06.526Z,3.87
2018-12-18T02:46:21.202Z,3.88
2018-12-18T02:47:06.551Z,3.84
2018-12-18T02:48:06.570Z,3.87
2018-12-18T02:49:06.334Z,3.91
2018-12-18T02:50:06.604Z,3.94
2018-12-18T02:51:06.608Z,3.97
2018-12-18T02:52:06.619Z,3.9
2018-12-18T02:53:06.637Z,3.83
2018-12-18T02:54:06.653Z,3.87
2018-12-18T02:55:06.668Z,3.91
2018-12-18T02:56:06.676Z,3.91
2018-12-18T02:57:06.693Z,3.88
2018-12-18T02:58:06.706Z,3.9
2018-12-18T02:59:06.718Z,3.91
2018-12-18T03:00:06.830Z,3.93
2018-12-18T03:01:21.407Z,3.88
2018-12-18T03:03:06.771Z,3.84
2018-12-18T03:04:06.794Z,3.9
2018-12-18T03:05:06.809Z,3.87
2018-12-18T03:06:06.815Z,3.83
2018-12-18T03:07:06.843Z,3.87
2018-12-18T03:08:06.846Z,3.8
2018-12-18T03:12:21.566Z,3.79
2018-12-18T03:13:06.913Z,3.84
2018-12-18T03:14:21.585Z,3.88
2018-12-18T03:15:06.947Z,3.78
2018-12-18T03:16:06.954Z,3.86
2018-12-18T03:17:06.966Z,3.87
2018-12-18T03:18:06.979Z,3.8
2018-12-18T03:19:06.992Z,3.87
2018-12-18T03:20:07.016Z,3.84
2018-12-18T03:21:07.037Z,3.79
2018-12-18T03:22:07.034Z,3.88
2018-12-18T03:23:07.051Z,3.84
2018-12-18T03:24:07.060Z,3.88
2018-12-18T03:25:07.085Z,3.9
2018-12-18T03:26:07.098Z,3.91
2018-12-18T03:27:07.106Z,3.87
2018-12-18T03:28:07.117Z,3.93
2018-12-18T03:29:07.138Z,3.96
2018-12-18T03:30:06.917Z,3.93
2018-12-18T03:31:07.194Z,3.97
2018-12-18T03:32:07.232Z,3.96
2018-12-18T03:33:21.850Z,4
2018-12-18T03:34:07.201Z,3.98
2018-12-18T03:35:07.231Z,3.98
2018-12-18T03:36:07.224Z,3.91
2018-12-18T03:37:07.243Z,4.02
2018-12-18T03:38:07.257Z,3.98
2018-12-18T03:39:07.280Z,4.02
2018-12-18T03:41:07.295Z,4.06
2018-12-18T03:44:22.000Z,4.05
2018-12-18T03:47:22.038Z,4.16
2018-12-18T03:48:07.395Z,4.06
2018-12-18T03:49:22.069Z,4.15
2018-12-18T03:50:07.198Z,4.16
2018-12-18T03:51:07.439Z,4.2
2018-12-18T03:52:07.454Z,4.18
2018-12-18T03:53:07.462Z,4.05
2018-12-18T03:54:07.473Z,4.04
2018-12-18T03:55:07.511Z,4
2018-12-18T03:56:07.504Z,4
2018-12-18T03:57:07.517Z,3.98
2018-12-18T03:58:07.533Z,4
2018-12-18T03:59:07.557Z,3.97
2018-12-18T04:00:07.563Z,4
2018-12-18T04:01:07.580Z,4.02
2018-12-18T04:02:07.589Z,4
2018-12-18T04:03:07.600Z,3.98
2018-12-18T04:04:07.627Z,3.96
2018-12-18T04:05:22.292Z,3.98
2018-12-18T04:06:07.653Z,3.97
2018-12-18T04:07:07.726Z,3.94
2018-12-18T04:08:07.668Z,4
2018-12-18T04:09:07.687Z,4
2018-12-18T04:10:07.698Z,4.05
2018-12-18T04:11:07.708Z,3.98
2018-12-18T04:12:07.726Z,4.09
2018-12-18T04:13:07.746Z,4.02
2018-12-18T04:14:07.761Z,4.02
2018-12-18T04:15:07.785Z,4.05
2018-12-18T04:16:07.779Z,4
2018-12-18T04:17:07.805Z,3.97
2018-12-18T04:18:07.810Z,4.02
2018-12-18T04:19:07.820Z,4.05
2018-12-18T04:20:07.836Z,3.96
2018-12-18T04:21:22.513Z,3.98
2018-12-18T04:22:07.861Z,4.04
2018-12-18T04:23:07.879Z,4.02
2018-12-18T04:24:07.895Z,4.16
2018-12-18T04:25:07.904Z,4.09
2018-12-18T04:26:07.917Z,4.06
2018-12-18T04:27:08.032Z,4.06
2018-12-18T04:28:07.949Z,4.08
2018-12-18T04:29:07.974Z,4.08
2018-12-18T04:30:07.977Z,4.12
2018-12-18T04:31:07.988Z,4.11
2018-12-18T04:32:22.664Z,4.04
2018-12-18T04:33:08.015Z,4
2018-12-18T04:34:22.690Z,4.14
2018-12-18T04:36:22.719Z,4.15
2018-12-18T04:37:08.073Z,4.09
2018-12-18T04:38:08.088Z,4.12
2018-12-18T04:39:08.114Z,4.06
2018-12-18T04:40:08.130Z,4
2018-12-18T04:41:08.127Z,4.15
2018-12-18T04:42:08.138Z,4.09
2018-12-18T04:43:08.155Z,4.09
2018-12-18T04:44:08.164Z,4.05
2018-12-18T04:45:08.238Z,4
2018-12-18T04:46:08.195Z,4
2018-12-18T04:47:22.877Z,3.97
2018-12-18T04:48:07.985Z,4.09
2018-12-18T04:49:08.266Z,4.11
2018-12-18T04:50:22.913Z,4.18
2018-12-18T04:51:08.268Z,4.22
2018-12-18T04:52:08.282Z,4.23
2018-12-18T04:54:08.305Z,4.23
2018-12-18T04:55:08.320Z,4.16
2018-12-18T04:56:08.402Z,4.22
2018-12-18T04:57:08.353Z,4.22
2018-12-18T04:58:08.362Z,4.22
2018-12-18T04:59:08.373Z,4.3
2018-12-18T05:00:08.395Z,4.3
2018-12-18T05:01:08.408Z,4.29
2018-12-18T05:02:08.434Z,4.27
2018-12-18T05:03:08.465Z,4.22
2018-12-18T05:04:08.786Z,4.36
2018-12-18T05:05:08.461Z,4.34
2018-12-18T05:06:08.475Z,4.36
2018-12-18T05:07:08.500Z,4.33
2018-12-18T05:08:23.164Z,4.36
2018-12-18T05:09:08.529Z,4.36
2018-12-18T05:10:08.538Z,4.33
2018-12-18T05:11:08.542Z,4.34
2018-12-18T05:12:08.561Z,4.41
2018-12-18T05:13:08.572Z,4.36
2018-12-18T05:15:08.788Z,4.33
2018-12-18T05:16:08.615Z,4.33
2018-12-18T05:17:08.636Z,4.34
2018-12-18T05:18:08.638Z,4.36
2018-12-18T05:19:08.756Z,4.33
2018-12-18T05:20:08.672Z,4.37
2018-12-18T05:21:08.685Z,4.32
2018-12-18T05:22:08.735Z,4.42
2018-12-18T05:23:08.714Z,4.45
2018-12-18T05:24:23.387Z,4.41
2018-12-18T05:25:08.742Z,4.48
2018-12-18T05:26:08.757Z,4.45
2018-12-18T05:29:08.795Z,4.44
2018-12-18T05:30:08.815Z,4.5
2018-12-18T05:31:08.827Z,4.41
2018-12-18T05:33:08.865Z,4.37
2018-12-18T05:34:08.863Z,4.45
2018-12-18T05:35:08.881Z,4.44
2018-12-18T05:36:08.894Z,4.47
2018-12-18T05:37:23.569Z,4.44
2018-12-18T05:38:08.922Z,4.44
2018-12-18T05:39:08.936Z,4.5
2018-12-18T05:41:08.962Z,4.55
2018-12-18T05:42:08.977Z,4.62
2018-12-18T05:43:08.993Z,4.66
2018-12-18T05:44:09.011Z,4.63
2018-12-18T05:45:09.019Z,4.62
2018-12-18T05:46:09.031Z,4.65
2018-12-18T05:47:09.047Z,4.7
2018-12-18T05:49:09.080Z,4.78
2018-12-18T05:50:09.090Z,4.72
2018-12-18T05:51:09.104Z,4.84
2018-12-18T05:52:09.116Z,4.77
2018-12-18T05:53:09.130Z,4.77
2018-12-18T05:54:09.144Z,4.67
2018-12-18T05:55:10.170Z,4.8
2018-12-18T05:56:23.834Z,4.82
2018-12-18T05:57:09.193Z,4.8
2018-12-18T05:58:09.201Z,4.91
2018-12-18T05:59:09.229Z,4.88
2018-12-18T06:00:09.230Z,4.85
2018-12-18T06:01:09.242Z,4.88
2018-12-18T06:02:09.256Z,4.8
2018-12-18T06:03:09.282Z,4.84
2018-12-18T06:04:09.287Z,4.82
2018-12-18T06:05:09.300Z,4.75
2018-12-18T06:06:09.727Z,4.73
2018-12-18T06:07:09.328Z,4.7
2018-12-18T06:08:24.006Z,4.73
2018-12-18T06:09:24.019Z,4.72
2018-12-18T06:10:09.374Z,4.78
2018-12-18T06:11:24.048Z,4.88
2018-12-18T06:12:09.403Z,4.7
2018-12-18T06:13:09.417Z,4.8
2018-12-18T06:14:09.434Z,4.75
2018-12-18T06:15:09.445Z,4.88
2018-12-18T06:16:09.458Z,4.82
2018-12-18T06:18:09.494Z,4.77
2018-12-18T06:19:09.503Z,4.86
2018-12-18T06:20:09.512Z,4.86
2018-12-18T06:21:09.533Z,4.91
2018-12-18T06:22:09.555Z,4.82
2018-12-18T06:23:09.559Z,4.84
2018-12-18T06:24:09.628Z,4.73
2018-12-18T06:25:09.610Z,4.89
2018-12-18T06:26:09.601Z,4.78
2018-12-18T06:27:09.615Z,4.88
2018-12-18T06:28:09.630Z,4.73
2018-12-18T06:29:09.641Z,4.78
2018-12-18T06:30:09.655Z,4.88
2018-12-18T06:31:09.669Z,4.84
2018-12-18T06:32:09.687Z,4.72
2018-12-18T06:33:09.701Z,4.78
2018-12-18T06:34:09.720Z,4.8
2018-12-18T06:35:15.156Z,4.75
2018-12-18T06:37:09.755Z,4.84
2018-12-18T06:38:09.771Z,4.84
2018-12-18T06:39:09.785Z,4.78
2018-12-18T06:40:09.808Z,4.86
2018-12-18T06:41:09.814Z,4.8
2018-12-18T06:42:09.826Z,4.88
2018-12-18T06:43:24.503Z,4.91
2018-12-18T06:44:09.860Z,4.92
2018-12-18T06:45:09.871Z,4.86
2018-12-18T06:46:09.886Z,4.92
2018-12-18T06:48:09.914Z,4.97
2018-12-18T06:49:09.983Z,4.99
2018-12-18T06:51:09.956Z,4.91
2018-12-18T06:52:09.971Z,4.91
2018-12-18T06:54:24.667Z,4.82
2018-12-18T06:55:10.018Z,4.82
2018-12-18T06:56:10.030Z,4.75
2018-12-18T06:57:10.044Z,4.91
2018-12-18T06:58:10.062Z,4.89
2018-12-18T06:59:24.734Z,4.85
2018-12-18T07:00:10.087Z,4.88
2018-12-18T07:01:10.101Z,4.88
2018-12-18T07:02:10.115Z,4.85
2018-12-18T07:03:10.130Z,4.89
2018-12-18T07:04:10.145Z,5
2018-12-18T07:05:16.491Z,4.89
2018-12-18T07:06:09.929Z,4.91
2018-12-18T07:07:10.186Z,4.91
2018-12-18T07:08:10.199Z,4.84
2018-12-18T07:09:10.213Z,4.78
2018-12-18T07:10:10.231Z,4.84
2018-12-18T07:11:10.245Z,4.86
2018-12-18T07:12:10.255Z,4.86
2018-12-18T07:13:10.272Z,4.88
2018-12-18T07:14:10.296Z,4.86
2018-12-18T07:15:24.962Z,4.89
2018-12-18T07:16:10.318Z,4.91
2018-12-18T07:17:10.329Z,4.86
2018-12-18T07:18:10.343Z,4.88
2018-12-18T07:19:10.358Z,4.88
2018-12-18T07:20:10.370Z,4.82
2018-12-18T07:21:10.386Z,4.86
2018-12-18T07:23:10.414Z,4.89
2018-12-18T07:24:16.401Z,4.91
2018-12-18T07:25:10.450Z,4.92
2018-12-18T07:26:10.458Z,4.89
2018-12-18T07:27:10.471Z,4.86
2018-12-18T07:28:25.150Z,4.99
2018-12-18T07:29:10.504Z,5.03
2018-12-18T07:30:10.522Z,4.86
2018-12-18T07:31:25.197Z,5.02
2018-12-18T07:32:10.557Z,4.91
2018-12-18T07:33:10.579Z,4.96
2018-12-18T07:34:10.572Z,5.03
2018-12-18T07:35:25.260Z,5.02
2018-12-18T07:36:10.604Z,4.97
2018-12-18T07:37:10.617Z,4.92
2018-12-18T07:38:10.651Z,4.94
2018-12-18T07:39:10.646Z,5
2018-12-18T07:40:10.663Z,4.94
2018-12-18T07:41:10.678Z,4.99
2018-12-18T07:42:10.702Z,4.92
2018-12-18T07:43:25.366Z,4.97
2018-12-18T07:44:10.722Z,4.99
2018-12-18T07:45:10.731Z,5
2018-12-18T07:46:25.421Z,4.97
2018-12-18T07:47:10.763Z,5.07
2018-12-18T07:48:10.780Z,5.09
2018-12-18T07:49:10.791Z,5.1
2018-12-18T07:50:10.807Z,5.09
2018-12-18T07:51:10.819Z,5.07
2018-12-18T07:52:10.836Z,5.07
2018-12-18T07:53:10.855Z,5.03
2018-12-18T07:54:10.868Z,5.12
2018-12-18T07:57:10.917Z,5.13
2018-12-18T07:58:10.924Z,5.13
2018-12-18T07:59:10.687Z,5.15
2018-12-18T08:00:10.959Z,5.15
2018-12-18T08:01:10.965Z,5.21
2018-12-18T08:02:10.982Z,5.24
2018-12-18T08:03:10.997Z,5.22
2018-12-18T08:04:11.006Z,5.27
2018-12-18T08:05:11.024Z,5.27
2018-12-18T08:06:11.036Z,5.33
2018-12-18T08:07:11.053Z,5.38
2018-12-18T08:08:11.065Z,5.39
2018-12-18T08:09:11.081Z,5.28
2018-12-18T08:10:11.098Z,5.38
2018-12-18T08:11:11.119Z,5.35
2018-12-18T08:13:25.804Z,5.36
2018-12-18T08:15:11.170Z,5.48
2018-12-18T08:16:11.184Z,5.42
2018-12-18T08:17:11.197Z,5.43
2018-12-18T08:18:25.875Z,5.42
2018-12-18T08:19:11.226Z,5.48
2018-12-18T08:20:11.246Z,5.48
2018-12-18T08:21:11.258Z,5.39
2018-12-18T08:22:11.271Z,5.43
2018-12-18T08:23:11.290Z,5.39
2018-12-18T08:24:11.301Z,5.39
2018-12-18T08:25:11.314Z,5.39
2018-12-18T08:26:11.334Z,5.48
2018-12-18T08:27:26.011Z,5.46
2018-12-18T08:28:11.359Z,5.53
2018-12-18T08:29:11.385Z,5.51
2018-12-18T08:30:11.391Z,5.51
2018-12-18T08:31:11.413Z,5.49
2018-12-18T08:32:26.080Z,5.49
2018-12-18T08:33:11.440Z,5.51
2018-12-18T08:34:26.110Z,5.58
2018-12-18T08:35:11.471Z,5.63
2018-12-18T08:36:11.478Z,5.65
2018-12-18T08:37:11.491Z,5.65
2018-12-18T08:38:11.515Z,5.64
2018-12-18T08:39:11.520Z,5.65
2018-12-18T08:41:11.550Z,5.75
2018-12-18T08:42:11.564Z,5.74
2018-12-18T08:43:11.579Z,5.72
2018-12-18T08:44:11.602Z,5.74
2018-12-18T08:45:26.274Z,5.75
2018-12-18T08:46:15.118Z,5.81
2018-12-18T08:47:11.640Z,5.86
2018-12-18T08:48:11.655Z,5.86
2018-12-18T08:49:11.670Z,5.89
2018-12-18T08:50:26.346Z,5.82
2018-12-18T08:51:11.697Z,5.85
2018-12-18T08:52:11.713Z,5.86
2018-12-18T08:53:11.806Z,5.93
2018-12-18T08:54:11.747Z,5.86
2018-12-18T08:55:11.757Z,5.83
2018-12-18T08:56:11.526Z,5.86
2018-12-18T08:57:11.794Z,5.9
2018-12-18T08:58:11.802Z,5.96
2018-12-18T08:59:11.869Z,5.96
2018-12-18T09:00:11.834Z,6.06
2018-12-18T09:01:11.846Z,6.11
2018-12-18T09:02:11.612Z,6.08
2018-12-18T09:03:11.878Z,6.08
2018-12-18T09:04:11.893Z,6.14
2018-12-18T09:05:11.908Z,6.09
2018-12-18T09:06:26.583Z,6.14
2018-12-18T09:07:11.936Z,6.09
2018-12-18T09:08:11.963Z,6
2018-12-18T09:09:11.968Z,6.09
2018-12-18T09:10:11.732Z,6.06
2018-12-18T09:11:11.996Z,6.08
2018-12-18T09:12:12.010Z,6.09
2018-12-18T09:14:12.046Z,6.12
2018-12-18T09:15:12.061Z,6.15
2018-12-18T09:16:12.073Z,6.17
2018-12-18T09:17:12.085Z,6.17
2018-12-18T09:18:12.106Z,6.21
2018-12-18T09:19:12.118Z,6.21
2018-12-18T09:20:12.134Z,6.22
2018-12-18T09:21:26.813Z,6.17
2018-12-18T09:22:12.165Z,6.22
2018-12-18T09:23:12.181Z,6.21
2018-12-18T09:24:12.198Z,6.21
2018-12-18T09:25:12.210Z,6.17
2018-12-18T09:26:12.223Z,6.25
2018-12-18T09:27:11.994Z,6.25
2018-12-18T09:28:12.252Z,6.27
2018-12-18T09:29:12.271Z,6.3
2018-12-18T09:30:12.284Z,6.36
2018-12-18T09:31:12.298Z,6.37
2018-12-18T09:32:12.314Z,6.33
2018-12-18T09:33:12.329Z,6.43
2018-12-18T09:34:12.345Z,6.41
2018-12-18T09:35:12.363Z,6.54
2018-12-18T09:36:12.376Z,6.55
2018-12-18T09:37:12.388Z,6.56
2018-12-18T09:38:12.415Z,6.58
2018-12-18T09:39:12.419Z,6.64
2018-12-18T09:40:12.437Z,6.8
2018-12-18T09:41:12.448Z,6.73
2018-12-18T09:43:12.479Z,6.97
2018-12-18T09:44:27.165Z,6.91
2018-12-18T09:45:12.509Z,6.97
2018-12-18T09:46:27.193Z,6.95
2018-12-18T09:48:12.561Z,6.97
2018-12-18T09:49:12.572Z,7.09
2018-12-18T09:50:12.588Z,7.02
2018-12-18T09:51:12.608Z,7.06
2018-12-18T09:52:12.618Z,7.09
2018-12-18T09:53:27.301Z,6.98
2018-12-18T09:55:13.079Z,7.07
2018-12-18T09:56:12.680Z,7.07
2018-12-18T09:57:12.720Z,7.13
2018-12-18T09:58:12.712Z,7.1
2018-12-18T09:59:12.731Z,7.12
2018-12-18T10:00:12.746Z,7.09
2018-12-18T10:01:12.764Z,7.13
2018-12-18T10:02:12.774Z,7.12
2018-12-18T10:03:12.789Z,7.13
2018-12-18T10:04:12.811Z,7.24
2018-12-18T10:05:12.822Z,7.15
2018-12-18T10:06:12.848Z,7.12
2018-12-18T10:07:27.516Z,7.16
2018-12-18T10:08:12.873Z,7.1
2018-12-18T10:09:27.549Z,7.13
2018-12-18T10:10:12.903Z,7.12
2018-12-18T10:11:12.917Z,7.25
2018-12-18T10:12:12.932Z,7.12
2018-12-18T10:13:12.955Z,7.16
2018-12-18T10:14:12.970Z,7.23
2018-12-18T10:15:12.980Z,7.15
2018-12-18T10:16:12.995Z,7.13
2018-12-18T10:17:13.021Z,7.15
2018-12-18T10:18:13.031Z,7.15
2018-12-18T10:19:13.044Z,7.21
2018-12-18T10:20:13.063Z,7.27
2018-12-18T10:21:13.147Z,7.25
2018-12-18T10:22:27.757Z,7.25
2018-12-18T10:23:13.158Z,7.28
2018-12-18T10:24:13.185Z,7.32
2018-12-18T10:26:13.164Z,7.43
2018-12-18T10:27:13.170Z,7.45
2018-12-18T10:28:12.946Z,7.42
2018-12-18T10:29:13.201Z,7.35
2018-12-18T10:30:13.417Z,7.53
2018-12-18T10:31:13.234Z,7.46
2018-12-18T10:32:13.263Z,7.48
2018-12-18T10:33:27.935Z,7.58
2018-12-18T10:34:13.282Z,7.5
2018-12-18T10:35:13.051Z,7.69
2018-12-18T10:36:13.319Z,7.53
2018-12-18T10:37:13.337Z,7.61
2018-12-18T10:38:28.010Z,7.58
2018-12-18T10:39:13.116Z,7.61
2018-12-18T10:40:13.381Z,7.55
2018-12-18T10:41:28.061Z,7.55
2018-12-18T10:42:13.414Z,7.63
2018-12-18T10:43:13.427Z,7.6
2018-12-18T10:44:13.443Z,7.67
2018-12-18T10:45:18.545Z,7.6
2018-12-18T10:46:28.147Z,7.64
2018-12-18T10:47:13.245Z,7.55
2018-12-18T10:48:13.519Z,7.63
2018-12-18T10:49:13.529Z,7.71
2018-12-18T10:50:13.549Z,7.61
2018-12-18T10:51:13.557Z,7.68
2018-12-18T10:52:13.586Z,7.63
2018-12-18T10:53:13.592Z,7.67
2018-12-18T10:54:13.607Z,7.68
2018-12-18T10:55:13.623Z,7.6
2018-12-18T10:56:28.303Z,7.64
2018-12-18T10:57:13.658Z,7.55
2018-12-18T10:58:13.671Z,7.67
2018-12-18T10:59:13.696Z,7.77
2018-12-18T11:01:13.726Z,7.79
2018-12-18T11:03:13.754Z,7.9
2018-12-18T11:04:13.773Z,7.85
2018-12-18T11:06:14.955Z,7.87
2018-12-18T11:07:13.823Z,7.9
2018-12-18T11:08:13.834Z,7.85
2018-12-18T11:09:28.514Z,7.89
2018-12-18T11:10:13.870Z,7.85
2018-12-18T11:11:13.887Z,7.89
2018-12-18T11:12:13.904Z,7.89
2018-12-18T11:13:14.017Z,7.86
2018-12-18T11:14:13.939Z,7.86
2018-12-18T11:15:13.951Z,7.72
2018-12-18T11:16:13.970Z,7.86
2018-12-18T11:17:13.981Z,7.85
2018-12-18T11:18:13.998Z,8
2018-12-18T11:19:14.014Z,7.9
2018-12-18T11:20:14.032Z,7.89
2018-12-18T11:21:14.053Z,7.83
2018-12-18T11:22:14.070Z,7.85
2018-12-18T11:23:14.182Z,8
2018-12-18T11:24:14.097Z,7.97
2018-12-18T11:25:14.114Z,8.1
2018-12-18T11:26:14.130Z,8.07
2018-12-18T11:27:14.153Z,8.01
2018-12-18T11:28:28.828Z,8.1
2018-12-18T11:29:14.189Z,8.11
2018-12-18T11:30:14.199Z,8.22
2018-12-18T11:31:14.213Z,8.08
2018-12-18T11:32:14.403Z,8.15
2018-12-18T11:33:14.244Z,8.11
2018-12-18T11:34:14.267Z,8.1
2018-12-18T11:35:14.031Z,8.15
2018-12-18T11:36:18.938Z,8.26
2018-12-18T11:37:14.390Z,8.28
2018-12-18T11:38:14.331Z,8.22
2018-12-18T11:39:14.346Z,8.28
2018-12-18T11:40:14.409Z,8.26
2018-12-18T11:41:14.381Z,8.12
2018-12-18T11:42:14.394Z,8.26
2018-12-18T11:43:14.419Z,8.22
2018-12-18T11:44:29.091Z,8.23
2018-12-18T11:45:14.444Z,8.2
2018-12-18T11:46:14.462Z,8.22
2018-12-18T11:47:14.476Z,8.34
2018-12-18T11:48:14.497Z,8.29
2018-12-18T11:49:14.512Z,8.47
2018-12-18T11:50:14.526Z,8.41
2018-12-18T11:51:14.543Z,8.37
2018-12-18T11:52:29.229Z,8.43
2018-12-18T11:53:14.575Z,8.47
2018-12-18T11:54:14.593Z,8.38
2018-12-18T11:55:14.361Z,8.4
2018-12-18T11:56:14.627Z,8.44
2018-12-18T11:57:14.756Z,8.45
2018-12-18T11:58:14.669Z,8.38
2018-12-18T11:59:15.406Z,8.4
2018-12-18T12:00:29.356Z,8.38
2018-12-18T12:01:14.715Z,8.41
2018-12-18T12:02:14.730Z,8.5
2018-12-18T12:03:14.744Z,8.44
2018-12-18T12:04:14.760Z,8.41
2018-12-18T12:05:14.777Z,8.41
2018-12-18T12:06:14.796Z,8.41
2018-12-18T12:08:14.831Z,8.41
2018-12-18T12:09:29.512Z,8.44
2018-12-18T12:10:14.862Z,8.41
2018-12-18T12:11:14.881Z,8.45
2018-12-18T12:12:14.896Z,8.41
2018-12-18T12:13:29.578Z,8.45
2018-12-18T12:14:14.935Z,8.44
2018-12-18T12:15:14.956Z,8.29
2018-12-18T12:16:29.631Z,8.4
2018-12-18T12:17:14.984Z,8.3
2018-12-18T12:18:14.997Z,8.41
2018-12-18T12:19:15.026Z,8.38
2018-12-18T12:20:15.035Z,8.34
2018-12-18T12:21:15.050Z,8.37
2018-12-18T12:22:15.067Z,8.41
2018-12-18T12:23:15.082Z,8.38
2018-12-18T12:24:15.104Z,8.3
2018-12-18T12:25:15.124Z,8.36
2018-12-18T12:26:15.132Z,8.45
2018-12-18T12:27:14.904Z,8.43
2018-12-18T12:28:29.833Z,8.3
2018-12-18T12:29:29.851Z,8.3
2018-12-18T12:30:15.205Z,8.29
2018-12-18T12:31:29.638Z,8.2
2018-12-18T12:32:15.241Z,8.26
2018-12-18T12:33:15.258Z,8.22
2018-12-18T12:34:15.278Z,8.23
2018-12-18T12:35:15.290Z,8.08
2018-12-18T12:36:15.314Z,8.23
2018-12-18T12:37:15.322Z,8.15
2018-12-18T12:38:15.343Z,8.1
2018-12-18T12:39:15.398Z,8.05
2018-12-18T12:40:15.375Z,8.07
2018-12-18T12:41:15.391Z,8.02
2018-12-18T12:42:15.416Z,7.97
2018-12-18T12:43:15.425Z,7.85
2018-12-18T12:44:15.445Z,7.82
2018-12-18T12:45:15.457Z,7.86
2018-12-18T12:46:15.480Z,7.75
2018-12-18T12:47:15.594Z,7.79
2018-12-18T12:48:15.510Z,7.79
2018-12-18T12:49:15.525Z,7.79
2018-12-18T12:50:15.542Z,7.72
2018-12-18T12:51:15.561Z,7.71
2018-12-18T12:52:15.585Z,7.74
2018-12-18T12:54:15.611Z,7.72
2018-12-18T12:55:15.628Z,7.61
2018-12-18T12:56:15.705Z,7.63
2018-12-18T12:57:15.667Z,7.64
2018-12-18T12:58:15.678Z,7.61
2018-12-18T12:59:30.359Z,7.6
2018-12-18T13:00:15.720Z,7.6
2018-12-18T13:01:15.729Z,7.63
2018-12-18T13:02:15.748Z,7.68
2018-12-18T13:03:30.426Z,7.58
2018-12-18T13:04:15.780Z,7.68
2018-12-18T13:05:15.796Z,7.63
2018-12-18T13:06:15.813Z,7.72
2018-12-18T13:07:15.826Z,7.57
2018-12-18T13:08:15.851Z,7.61
2018-12-18T13:09:15.866Z,7.64
2018-12-18T13:10:15.875Z,7.67
2018-12-18T13:12:15.918Z,7.72
2018-12-18T13:14:30.607Z,7.61
2018-12-18T13:15:30.623Z,7.55
2018-12-18T13:16:30.639Z,7.61
2018-12-18T13:17:15.998Z,7.58
2018-12-18T13:18:16.014Z,7.52
2018-12-18T13:19:30.691Z,7.5
2018-12-18T13:20:16.050Z,7.46
2018-12-18T13:21:16.061Z,7.46
2018-12-18T13:22:16.075Z,7.52
2018-12-18T13:23:16.096Z,7.5
2018-12-18T13:24:16.108Z,7.4
2018-12-18T13:25:16.138Z,7.34
2018-12-18T13:26:16.143Z,7.35
2018-12-18T13:27:16.164Z,7.31
2018-12-18T13:28:30.842Z,7.28
2018-12-18T13:29:16.192Z,7.27
2018-12-18T13:30:16.207Z,7.25
2018-12-18T13:31:30.887Z,7.27
2018-12-18T13:33:16.258Z,7.31
2018-12-18T13:34:16.273Z,7.25
2018-12-18T13:35:30.955Z,7.25
2018-12-18T13:36:16.309Z,7.34
2018-12-18T13:37:16.323Z,7.28
2018-12-18T13:38:16.340Z,7.17
2018-12-18T13:39:16.353Z,7.25
2018-12-18T13:40:16.370Z,7.23
2018-12-18T13:41:16.388Z,7.27
2018-12-18T13:42:16.406Z,7.09
2018-12-18T13:44:16.443Z,7.13
2018-12-18T13:45:16.452Z,7.12
2018-12-18T13:46:19.957Z,7.27
2018-12-18T13:47:31.149Z,7.25
2018-12-18T13:48:16.509Z,7.25
2018-12-18T13:49:16.521Z,7.23
2018-12-18T13:50:16.536Z,7.24
2018-12-18T13:51:31.225Z,7.24
2018-12-18T13:52:16.568Z,7.27
2018-12-18T13:53:16.586Z,7.16
2018-12-18T13:54:16.605Z,7.1
2018-12-18T13:56:16.642Z,7.02
2018-12-18T13:57:16.651Z,6.98
2018-12-18T13:58:16.666Z,6.84
2018-12-18T13:59:31.351Z,6.76
2018-12-18T14:00:16.704Z,6.81
2018-12-18T14:01:16.714Z,6.76
2018-12-18T14:02:16.734Z,6.74
2018-12-18T14:03:16.815Z,6.61
2018-12-18T14:04:16.765Z,6.52
2018-12-18T14:05:16.780Z,6.52
2018-12-18T14:06:31.458Z,6.38
2018-12-18T14:07:16.818Z,6.41
2018-12-18T14:08:16.826Z,6.38
2018-12-18T14:09:16.846Z,6.36
2018-12-18T14:10:16.860Z,6.28
2018-12-18T14:11:16.895Z,6.28
2018-12-18T14:12:16.893Z,6.34
2018-12-18T14:13:16.910Z,6.33